Aérodrome :
LOGIN :

S'inscrire | Disclaimer

   EN    FR    IT 

 










Légende :    VFR   VFR Marginal   IFR   IFR Intensif   IFR Très Intensif
Visi : 
Plafond : 
>= 8 km
>= 3000ft
5 à 8 km
1000 à 3000 ft
1500m à 5 km
500 à 1000 ft
800 à 1500m
200 à 500 ft
< 800m
< 200 ft
Symboles :   Orages  Brouillard  Fortes neiges  Fortes précipitations  Vent > 20 kt
SIGMETs :   Divers  Orages  Givrage  Turbulence  Onde Orograph.  Cendres Volcan.







- Altitude de l'aérodrome : 179 ft


LIPI - Rivolto AFB Udine

DERNIER METAR :
  • 231555Z 02005KT 9999 FEW030CB SCT110 29/23 Q1012 RMK BKN VIS MIN 9999 WIND THR06 03004KT WIND THR24 02004KT BLU

METARs EXPIRÉS :
  • 231513Z 03005KT 9999 FEW030CB FEW035TCU SCT110 29/22 Q1012 RETS RMK BKN VIS MIN 9999 WIND THR06 03004KT WIND THR24 02004KT BLU
  • 231455Z 03008KT 350V070 9999 TS FEW030CB FEW035TCU SCT110 28/21 Q1012 RMK BKN VIS MIN 9999 WIND THR06 01005KT WIND THR24 36005KT BLU
  • 231355Z 17007KT 9999 TS FEW030CB SCT040 30/22 Q1012 RMK BKN VIS MIN 9999 WIND THR06 16006KT WIND THR24 16005KT BLU

TAF TAF LIPI
Valide du 23 à 15h jusqu'au 24 à 00h UTC


231400Z 2315/2324 16005KT 9999 SCT035
TEMPO 2315/2318 21010KT 6000 TSRA FEW030CB BKN040
Pas de NOTAMs connus pour ce terrain.



MET'MAP, la Météo Aéronautique d'un coup d'oeil ! - Copyright ORBIFLY Décembre 2007 - Disclaimer

ORBIFLY MET'MAP TEAM :

Programmation & Développement : Alexandra Zaïnal
Conception & Développement : Baudouin d'Aumeries
Co-Programmation & Développement : Marc-Olivier Méhu
Soutien technique & logistique : Manuel Goepfert

Contact : metmap@orbifly.com




SOURCES & CREDITS :

   NOAA